Altoona, IA (50009)

5:58 PM CDT on August 28, 2015 (GMT -0500)
Altoona, Iowa Weather | | Change Station
CLOSE
Current Station
Personal Weather Station
Location: Altoona, IA
Elevation: 968 ft
Nearby Weather Stations
Active Advisory: Flood Warning Active Notice: Record Report

Elev 968 ft 41.63 °N, 93.47 °W | Updated 4 seconds ago

Mostly Cloudy
Mostly Cloudy
72.4 °F
Feels Like 71 °F
N
0.0
Wind Variable Wind from West
Gusts 3.0 mph

Today
High -- | Low -- °F
--% Chance of Precip.
Yesterday
High -- | Low -- °F
Precip. -- in
6:35 AM 7:53 PM
Waxing Gibbous, 99% visible
Pressure 29.84 in
Visibility 9.0 miles
Clouds Few 2300 ft
Overcast 3000 ft
Heat Index 71 °F
Dew Point 68 °F
Humidity 86%
Rainfall 0.51 in
Snow Depth Not available.
UV 1 out of 12
Pollen 1.10 out of 12
Air Quality Not available.
Flu Activity Not available.
METAR KIKV 282235Z AUTO 16005G11KT 9SM FEW023 OVC030 23/20 A2984 RMK AO2
Pressure 29.84 in
Visibility 9.0 miles
Clouds Few 2300 ft
Overcast 3000 ft
Heat Index 71 °F
Dew Point 68 °F
Humidity 86%
Rainfall 0.51 in
Snow Depth Not available.
UV 1 out of 12
Pollen 1.10 out of 12
Air Quality Not available.
Flu Activity Not available.
METAR KIKV 282235Z AUTO 16005G11KT 9SM FEW023 OVC030 23/20 A2984 RMK AO2

10-Day Weather Forecast

×

Almanac

Astronomy

Aug. 28, 2015 Rise Set
Actual Time
Civil Twilight
Nautical Twilight
Astronomical Twilight
Moon
Length of Visible Light
Length of Day
Tomorrow will be .
, % of the Moon is Illuminated

Today's Extremes

State Highs State Lows

Community

WunderPhotos

Upload Photos

1,850,516 photos uploaded!

WunderBlogs® & News

Nearby

Air Quality

  Air Quality AQ Index Pollutant
Not available.

Snow Depth

Station Depth Elevation

Earthquake Activity

City Distance Mag. Time & Date
Minimum magnitude displayed is 2.5.

Coastal Water Temperatures

Place Temperature

Stations

Nearby Weather Stations

Station Location Temp. Windchill Dew Point Humidity Wind Precip. Elev Updated Type
                   
Flood Warning
Statement as of 3:01 PM CDT on August 28, 2015

... Flood Warning in effect until early Sunday morning...

The National Weather Service in Des Moines has issued a
* Flood Warning for
the south Skunk River near Ames US 30... or from squaw creek... to
the Polk-Jasper County line.
* Until early Sunday morning.
* At 1:00 PM Friday the stage was 14.1 feet... or 7.4 feet below
flood stage.
* Flood stage is 21.5 feet.
* No flooding is occurring and minor flooding is forecast.
* Forecast... rise to flood stage Saturday morning. Continue rising to
22.8 feet... or 1.3 feet above flood stage... Saturday afternoon. Go
below flood stage early Sunday morning.
* Impact... at 21.0 feet... water affects south 16th street. Water
also affects the sports complex along the river south of US 30.


Lat... Lon 4201 9362 4201 9357 4174 9335 4168 9335
      4180 9352 4201 9362


Zogg